Time;durP1;ratioP1;P1;durP2;ratioP2;P2;SDS_P1;SDS_P2;PMS_P1;PMS_P2;Temp;Humidity;BMP_temperature;BMP_pressure;BME280_temperature;BME280_humidity;BME280_pressure;Samples;Min_cycle;Max_cycle;Signal;HPM_P1;HPM_P2
2023/09/27 00:21:31;;;;;;;9.07;5.07;;;;;14.30;101481.00;;;;2810846;27;20198;-93
2023/09/27 00:26:34;;;;;;;7.17;4.93;;;;;14.30;101456.00;;;;10197072;28;21283;-93
2023/09/27 00:31:36;;;;;;;7.63;5.55;;;;;14.30;101448.00;;;;10169588;29;20218;-93
2023/09/27 00:36:38;;;;;;;6.05;4.65;;;;;14.30;101448.00;;;;10196582;29;20250;-92
2023/09/27 00:41:41;;;;;;;7.40;5.40;;;;;14.20;101437.00;;;;10169616;29;20203;-93
2023/09/27 00:46:44;;;;;;;8.63;4.87;;;;;14.20;101412.00;;;;10159813;29;20394;-92
2023/09/27 00:51:47;;;;;;;8.90;4.67;;;;;14.20;101395.00;;;;10176484;23;20238;-83
2023/09/27 00:56:51;;;;;;;7.97;4.73;;;;;14.20;101389.00;;;;10145453;29;20243;-83
2023/09/27 01:01:55;;;;;;;8.60;5.40;;;;;14.20;101387.00;;;;10161639;29;20198;-80
2023/09/27 01:06:58;;;;;;;6.83;5.00;;;;;14.10;101404.00;;;;10153997;29;20228;-80
2023/09/27 01:12:00;;;;;;;10.37;5.10;;;;;14.00;101427.00;;;;10134838;28;20253;-80
2023/09/27 01:17:16;;;;;;;5.43;4.88;;;;;13.90;101437.00;;;;10133868;29;20226;-80
2023/09/27 01:22:19;;;;;;;8.53;5.73;;;;;13.70;101445.00;;;;10133082;29;20214;-80
2023/09/27 01:27:22;;;;;;;7.40;5.20;;;;;13.70;101448.00;;;;10123365;28;20273;-79
2023/09/27 01:32:24;;;;;;;9.10;5.10;;;;;13.60;101445.00;;;;10119692;29;20211;-79
2023/09/27 01:37:26;;;;;;;7.80;5.20;;;;;13.50;101436.00;;;;10164514;29;20219;-79
2023/09/27 01:42:28;;;;;;;7.47;5.27;;;;;13.50;101434.00;;;;10179573;29;20302;-79
2023/09/27 01:47:30;;;;;;;7.17;5.43;;;;;13.40;101431.00;;;;10126235;29;20223;-80
2023/09/27 01:52:32;;;;;;;8.00;5.83;;;;;13.30;101429.00;;;;10131690;29;20214;-79
2023/09/27 01:57:34;;;;;;;10.73;7.17;;;;;13.40;101421.00;;;;10170328;28;20223;-80
2023/09/27 02:02:38;;;;;;;8.68;5.88;;;;;13.50;101407.00;;;;10134297;29;20207;-79
2023/09/27 02:07:41;;;;;;;10.50;6.57;;;;;13.60;101420.00;;;;10157482;28;20959;-79
2023/09/27 02:12:43;;;;;;;9.57;5.93;;;;;13.50;101413.00;;;;10141524;29;20852;-79
2023/09/27 02:17:46;;;;;;;9.23;6.00;;;;;13.50;101414.00;;;;10126068;29;20875;-79
2023/09/27 02:22:49;;;;;;;10.40;6.03;;;;;13.40;101414.00;;;;10126431;29;20215;-79
2023/09/27 02:27:52;;;;;;;7.97;5.87;;;;;13.30;101424.00;;;;10121990;29;20235;-79
2023/09/27 02:32:54;;;;;;;8.03;5.80;;;;;13.20;101422.00;;;;10154837;29;20254;-78
2023/09/27 02:37:56;;;;;;;8.47;5.93;;;;;13.20;101420.00;;;;10162612;29;20218;-78
2023/09/27 02:42:58;;;;;;;11.63;6.30;;;;;13.10;101414.00;;;;10152324;29;20222;-78
2023/09/27 02:48:01;;;;;;;9.37;6.07;;;;;13.10;101429.00;;;;10160226;29;20261;-80
2023/09/27 02:53:04;;;;;;;6.70;5.90;;;;;13.00;101421.00;;;;10140424;29;20224;-79
2023/09/27 02:58:06;;;;;;;9.73;6.23;;;;;12.90;101442.00;;;;10129006;29;20295;-78
2023/09/27 03:03:09;;;;;;;9.43;7.33;;;;;12.90;101442.00;;;;10150529;29;20219;-79
2023/09/27 03:08:12;;;;;;;11.40;6.33;;;;;12.80;101423.00;;;;10133319;29;20235;-80
2023/09/27 03:13:14;;;;;;;9.13;5.97;;;;;12.70;101404.00;;;;10157899;29;20680;-77
2023/09/27 03:18:17;;;;;;;9.27;6.67;;;;;12.70;101442.00;;;;10136466;29;20210;-78
2023/09/27 03:23:19;;;;;;;10.57;6.53;;;;;12.60;101425.00;;;;10130288;29;20207;-81
2023/09/27 03:28:22;;;;;;;9.70;6.63;;;;;12.60;101445.00;;;;10122874;29;21048;-77
2023/09/27 03:33:25;;;;;;;11.00;6.27;;;;;12.60;101433.00;;;;10129300;29;20211;-78
2023/09/27 03:38:27;;;;;;;12.13;6.57;;;;;12.60;101428.00;;;;10143028;29;20365;-78
2023/09/27 03:43:29;;;;;;;11.50;6.37;;;;;12.60;101437.00;;;;10133777;29;20219;-78
2023/09/27 03:48:32;;;;;;;8.37;6.33;;;;;12.60;101416.00;;;;10129182;29;20231;-78
2023/09/27 03:53:35;;;;;;;8.40;7.27;;;;;12.50;101433.00;;;;10130093;29;20218;-79
2023/09/27 03:58:37;;;;;;;9.63;6.73;;;;;12.50;101425.00;;;;10148220;29;20309;-80
2023/09/27 04:03:39;;;;;;;7.50;6.73;;;;;12.50;101438.00;;;;10135682;29;20246;-78
2023/09/27 04:08:41;;;;;;;12.03;7.57;;;;;12.50;101447.00;;;;10138896;29;20234;-78
2023/09/27 04:13:45;;;;;;;11.47;6.67;;;;;12.50;101442.00;;;;10165381;29;20727;-78
2023/09/27 04:18:47;;;;;;;14.40;6.70;;;;;12.50;101459.00;;;;10155545;29;20215;-78
2023/09/27 04:23:56;;;;;;;9.10;6.37;;;;;12.50;101443.00;;;;10107468;29;20220;-78
2023/09/27 04:29:00;;;;;;;7.77;6.40;;;;;12.50;101438.00;;;;10136941;29;20739;-80
2023/09/27 04:34:02;;;;;;;15.13;7.00;;;;;12.50;101425.00;;;;10126239;29;20223;-81
2023/09/27 04:39:11;;;;;;;9.07;6.67;;;;;12.40;101425.00;;;;10121884;29;20744;-79
2023/09/27 04:44:13;;;;;;;9.10;6.80;;;;;12.40;101420.00;;;;10158567;29;20207;-81
2023/09/27 04:49:15;;;;;;;12.13;7.63;;;;;12.30;101434.00;;;;10171444;23;20231;-79
2023/09/27 04:54:17;;;;;;;9.17;7.17;;;;;12.30;101433.00;;;;10128783;29;20238;-79
2023/09/27 04:59:19;;;;;;;9.90;6.20;;;;;12.20;101433.00;;;;10101496;29;20571;-79
2023/09/27 05:04:21;;;;;;;10.33;7.17;;;;;12.10;101420.00;;;;10095999;29;20215;-79
2023/09/27 05:09:23;;;;;;;7.53;6.73;;;;;12.10;101421.00;;;;10095551;29;20227;-79
2023/09/27 05:14:28;;;;;;;10.83;7.10;;;;;12.10;101415.00;;;;10121650;29;20845;-80
2023/09/27 05:19:30;;;;;;;13.83;7.17;;;;;12.00;101416.00;;;;10106024;29;20223;-79
2023/09/27 05:24:38;;;;;;;13.13;6.87;;;;;12.00;101409.00;;;;10122750;29;20239;-78
2023/09/27 05:29:41;;;;;;;9.20;7.83;;;;;12.00;101399.00;;;;10098818;29;20245;-79
2023/09/27 05:34:44;;;;;;;11.40;8.10;;;;;12.00;101375.00;;;;10111314;29;20670;-79
2023/09/27 05:39:46;;;;;;;11.07;8.77;;;;;12.00;101396.00;;;;10111423;29;20216;-79
2023/09/27 05:44:48;;;;;;;12.13;9.30;;;;;12.10;101383.00;;;;10087273;29;20219;-80
2023/09/27 05:49:50;;;;;;;9.30;7.90;;;;;12.10;101357.00;;;;10104479;29;20220;-79
2023/09/27 05:54:52;;;;;;;9.93;7.93;;;;;12.20;101358.00;;;;10112596;29;20266;-79
2023/09/27 05:59:54;;;;;;;11.90;8.10;;;;;12.30;101357.00;;;;10112150;29;20231;-80
2023/09/27 06:04:57;;;;;;;11.80;8.20;;;;;12.40;101352.00;;;;10102726;29;20306;-80
2023/09/27 06:09:59;;;;;;;10.97;7.63;;;;;12.60;101374.00;;;;10106378;29;20211;-80
2023/09/27 06:15:01;;;;;;;11.77;8.90;;;;;12.80;101382.00;;;;10120385;29;20284;-80
2023/09/27 06:20:05;;;;;;;16.50;10.03;;;;;12.90;101369.00;;;;10098777;29;20219;-81
2023/09/27 06:25:08;;;;;;;18.20;11.40;;;;;13.00;101375.00;;;;10091645;29;20502;-80
2023/09/27 06:30:11;;;;;;;20.33;13.87;;;;;13.20;101382.00;;;;10104458;29;20259;-80
2023/09/27 06:35:14;;;;;;;17.87;12.77;;;;;13.10;101364.00;;;;10088387;29;20758;-82
2023/09/27 06:40:17;;;;;;;20.57;13.40;;;;;13.10;101361.00;;;;10094694;29;20220;-80
2023/09/27 06:45:19;;;;;;;17.90;12.50;;;;;13.10;101377.00;;;;10123316;29;20218;-80
2023/09/27 06:50:22;;;;;;;19.03;13.53;;;;;13.10;101388.00;;;;10097471;29;20369;-80
2023/09/27 06:55:24;;;;;;;16.27;12.10;;;;;13.30;101373.00;;;;10086935;29;20218;-79
2023/09/27 07:00:26;;;;;;;15.40;11.07;;;;;13.50;101389.00;;;;10118376;29;20267;-80
2023/09/27 07:05:28;;;;;;;20.98;12.10;;;;;14.10;101373.00;;;;10107540;29;20211;-81
2023/09/27 07:16:34;;;;;;;17.88;10.50;;;;;15.30;101403.00;;;;10686199;23;20236;-84
2023/09/27 07:21:54;;;;;;;15.47;10.13;;;;;15.60;101420.00;;;;10965853;23;20272;-87
2023/09/27 07:33:12;;;;;;;14.30;9.82;;;;;16.60;101416.00;;;;10398405;23;20222;-85
2023/09/27 07:38:14;;;;;;;20.95;9.73;;;;;17.00;101413.00;;;;10164286;29;20279;-86
2023/09/27 07:43:16;;;;;;;19.83;10.20;;;;;17.50;101409.00;;;;10121722;29;20254;-87
2023/09/27 07:48:21;;;;;;;13.27;9.20;;;;;17.70;101416.00;;;;10123862;29;20235;-87
2023/09/27 07:53:23;;;;;;;14.32;9.10;;;;;18.20;101430.00;;;;10124809;29;20268;-87
2023/09/27 07:58:25;;;;;;;11.45;8.13;;;;;18.60;101408.00;;;;10111135;29;20215;-90
2023/09/27 08:03:27;;;;;;;12.38;7.38;;;;;19.20;101420.00;;;;10105243;29;20761;-88
2023/09/27 08:08:30;;;;;;;9.35;6.82;;;;;19.60;101402.00;;;;10103141;29;20235;-89
2023/09/27 08:13:32;;;;;;;10.25;6.63;;;;;20.00;101402.00;;;;10112130;29;20310;-90
2023/09/27 08:18:37;;;;;;;9.18;5.95;;;;;20.70;101389.00;;;;10098110;29;20216;-80
2023/09/27 08:23:40;;;;;;;7.35;5.65;;;;;21.00;101385.00;;;;10117054;29;20222;-80
2023/09/27 08:28:43;;;;;;;9.77;5.93;;;;;21.60;101386.00;;;;10103482;29;20310;-81
2023/09/27 08:33:44;;;;;;;11.07;6.32;;;;;21.80;101395.00;;;;10099929;29;20688;-79
2023/09/27 08:38:46;;;;;;;10.05;5.53;;;;;21.70;101409.00;;;;10088284;29;20219;-79
2023/09/27 08:43:50;;;;;;;9.20;5.82;;;;;21.70;101397.00;;;;10074508;29;20226;-79
2023/09/27 08:48:56;;;;;;;9.02;5.80;;;;;21.80;101390.00;;;;10098337;29;20251;-79
2023/09/27 08:53:58;;;;;;;7.57;5.50;;;;;21.50;101380.00;;;;10082555;29;20821;-80
2023/09/27 08:59:01;;;;;;;8.00;5.22;;;;;21.30;101377.00;;;;10104582;29;20218;-79
2023/09/27 09:04:03;;;;;;;6.88;4.80;;;;;21.40;101370.00;;;;10122553;29;20684;-79
2023/09/27 09:09:10;;;;;;;8.88;4.70;;;;;21.50;101366.00;;;;10088955;29;20239;-80
2023/09/27 09:14:17;;;;;;;5.80;4.32;;;;;21.70;101371.00;;;;10092517;29;20204;-79
2023/09/27 09:19:25;;;;;;;8.45;4.30;;;;;22.00;101364.00;;;;10101358;29;20235;-80
2023/09/27 09:24:45;;;;;;;9.18;4.40;;;;;22.30;101370.00;;;;10096430;29;20785;-80
2023/09/27 09:29:48;;;;;;;7.13;4.43;;;;;22.40;101365.00;;;;10073061;29;20215;-82
2023/09/27 09:34:54;;;;;;;6.47;4.35;;;;;22.70;101373.00;;;;10109943;29;20195;-81
2023/09/27 09:40:14;;;;;;;7.90;3.63;;;;;23.20;101376.00;;;;10082062;29;20196;-81
2023/09/27 09:45:17;;;;;;;5.97;3.85;;;;;23.60;101372.00;;;;10102172;29;20211;-81
2023/09/27 09:50:19;;;;;;;7.50;3.88;;;;;23.70;101360.00;;;;10073645;29;20282;-81
2023/09/27 09:55:23;;;;;;;8.82;4.20;;;;;23.70;101366.00;;;;10083524;29;20212;-82
2023/09/27 10:00:49;;;;;;;6.03;4.00;;;;;23.60;101364.00;;;;10116726;29;20243;-82
2023/09/27 10:05:53;;;;;;;6.18;3.72;;;;;23.60;101366.00;;;;10108972;29;20297;-81
2023/09/27 10:10:55;;;;;;;6.85;3.40;;;;;24.20;101361.00;;;;10109663;29;20625;-82
2023/09/27 10:15:58;;;;;;;4.45;3.22;;;;;24.50;101360.00;;;;10128999;29;20224;-82
2023/09/27 10:21:05;;;;;;;6.40;3.67;;;;;25.00;101357.00;;;;10099902;29;20222;-82
2023/09/27 10:26:19;;;;;;;8.48;5.05;;;;;25.80;101340.00;;;;10124863;29;20223;-82
2023/09/27 10:31:21;;;;;;;4.70;3.10;;;;;26.10;101321.00;;;;10097900;29;20238;-82
2023/09/27 10:36:23;;;;;;;5.50;3.45;;;;;25.60;101302.00;;;;10091331;29;20208;-82
2023/09/27 10:41:31;;;;;;;3.83;2.60;;;;;25.30;101295.00;;;;10120003;29;20345;-87
2023/09/27 10:46:45;;;;;;;4.88;2.90;;;;;25.10;101286.00;;;;10112165;29;20235;-87
2023/09/27 10:51:47;;;;;;;4.40;2.80;;;;;25.80;101272.00;;;;10113077;29;20670;-88
2023/09/27 10:56:57;;;;;;;9.93;3.45;;;;;26.00;101264.00;;;;10111223;29;20246;-88
2023/09/27 11:01:59;;;;;;;4.35;2.80;;;;;25.90;101270.00;;;;10086249;29;20804;-85
2023/09/27 11:07:02;;;;;;;5.75;3.05;;;;;25.90;101262.00;;;;10044318;29;21607;-88
2023/09/27 11:12:04;;;;;;;3.58;2.78;;;;;26.60;101255.00;;;;10068502;29;20956;-88
2023/09/27 11:17:32;;;;;;;5.50;2.67;;;;;26.60;101243.00;;;;10058143;29;20222;-88
2023/09/27 11:22:35;;;;;;;4.18;2.53;;;;;26.80;101235.00;;;;10085868;29;20307;-88
2023/09/27 11:27:43;;;;;;;3.80;2.78;;;;;27.80;101220.00;;;;10090114;29;20239;-85
2023/09/27 11:32:51;;;;;;;4.90;2.55;;;;;28.20;101196.00;;;;10122559;29;20223;-87
2023/09/27 11:38:06;;;;;;;4.25;3.85;;;;;28.10;101192.00;;;;10097379;29;20215;-88
2023/09/27 11:43:08;;;;;;;7.40;3.08;;;;;27.90;101185.00;;;;10092591;29;20215;-87
2023/09/27 11:48:10;;;;;;;9.80;3.03;;;;;27.90;101176.00;;;;10129214;29;20234;-85
2023/09/27 11:53:12;;;;;;;4.70;2.42;;;;;27.90;101153.00;;;;10112704;29;20238;-81
2023/09/27 11:58:15;;;;;;;10.52;3.38;;;;;27.80;101147.00;;;;10075883;29;20215;-81
2023/09/27 12:03:17;;;;;;;5.32;2.40;;;;;27.80;101132.00;;;;10074357;29;20217;-82
2023/09/27 12:08:19;;;;;;;4.00;2.75;;;;;27.80;101124.00;;;;10075930;29;20227;-82
2023/09/27 12:13:21;;;;;;;3.97;2.50;;;;;28.00;101126.00;;;;10079038;29;20211;-81
2023/09/27 12:18:23;;;;;;;4.13;2.60;;;;;27.90;101122.00;;;;10071435;29;20215;-82
2023/09/27 12:23:26;;;;;;;7.25;2.65;;;;;28.20;101112.00;;;;10091979;29;20203;-82
2023/09/27 12:28:28;;;;;;;4.30;2.58;;;;;28.80;101114.00;;;;10092300;29;20239;-82
2023/09/27 12:33:30;;;;;;;5.88;2.40;;;;;29.10;101111.00;;;;10097709;29;20203;-82
2023/09/27 12:38:32;;;;;;;5.45;2.70;;;;;28.50;101120.00;;;;10101304;29;20192;-82
2023/09/27 12:43:34;;;;;;;4.22;2.50;;;;;27.70;101131.00;;;;10114379;29;20704;-82
2023/09/27 12:48:38;;;;;;;6.00;3.10;;;;;27.20;101123.00;;;;10115549;29;20307;-82
2023/09/27 12:53:40;;;;;;;5.38;2.72;;;;;27.00;101121.00;;;;10095753;29;20195;-82
2023/09/27 12:58:44;;;;;;;5.43;2.55;;;;;27.00;101123.00;;;;10101129;29;20216;-86
2023/09/27 13:03:47;;;;;;;6.95;2.83;;;;;27.10;101128.00;;;;10093699;29;20222;-86
2023/09/27 13:08:49;;;;;;;3.92;2.72;;;;;27.20;101121.00;;;;10104026;29;20274;-86
2023/09/27 13:13:51;;;;;;;6.80;3.00;;;;;27.30;101126.00;;;;10104461;29;20222;-85
2023/09/27 13:18:53;;;;;;;5.72;2.72;;;;;27.00;101121.00;;;;10093257;29;20204;-85
2023/09/27 13:24:05;;;;;;;7.28;3.97;;;;;26.80;101122.00;;;;10087802;29;20885;-86
2023/09/27 13:29:07;;;;;;;5.45;3.75;;;;;26.70;101113.00;;;;10091750;29;20228;-85
2023/09/27 13:34:09;;;;;;;8.77;4.30;;;;;26.70;101095.00;;;;10108965;29;20932;-86
2023/09/27 13:39:24;;;;;;;11.30;6.07;;;;;26.70;101089.00;;;;10094619;29;21425;-85
2023/09/27 13:44:27;;;;;;;6.50;3.88;;;;;26.90;101088.00;;;;10095648;29;20218;-85
2023/09/27 13:49:29;;;;;;;5.53;2.35;;;;;27.00;101089.00;;;;10093368;29;20218;-86
2023/09/27 13:54:31;;;;;;;7.70;2.70;;;;;27.10;101088.00;;;;10105495;29;20218;-85
2023/09/27 13:59:33;;;;;;;3.15;2.40;;;;;26.90;101089.00;;;;10090026;29;20203;-85
2023/09/27 14:04:35;;;;;;;5.28;2.72;;;;;26.80;101081.00;;;;10076148;29;20340;-87
2023/09/27 14:09:37;;;;;;;5.28;2.40;;;;;26.40;101076.00;;;;10093216;29;20223;-83
2023/09/27 14:14:39;;;;;;;3.80;2.60;;;;;26.10;101077.00;;;;10108478;29;20247;-83
2023/09/27 14:19:41;;;;;;;5.10;2.67;;;;;25.90;101068.00;;;;10095887;29;20210;-83
2023/09/27 14:24:43;;;;;;;4.57;2.40;;;;;25.90;101063.00;;;;10104283;29;20202;-83
2023/09/27 14:29:45;;;;;;;4.65;2.65;;;;;25.80;101049.00;;;;10073089;29;20701;-84
2023/09/27 14:34:47;;;;;;;5.85;2.67;;;;;25.70;101047.00;;;;10075847;29;20206;-83
2023/09/27 14:39:59;;;;;;;3.20;2.50;;;;;25.70;101037.00;;;;10091803;29;20207;-83
2023/09/27 14:45:01;;;;;;;6.07;2.70;;;;;25.70;101032.00;;;;10094578;29;20215;-83
2023/09/27 14:50:05;;;;;;;4.47;2.60;;;;;25.80;101027.00;;;;10091186;29;20804;-84
2023/09/27 14:55:07;;;;;;;8.07;2.75;;;;;25.70;101023.00;;;;10057215;29;20222;-84
2023/09/27 15:00:13;;;;;;;5.70;2.90;;;;;25.60;101015.00;;;;10099581;29;20235;-84
2023/09/27 15:05:15;;;;;;;4.45;2.50;;;;;25.50;101005.00;;;;10191425;23;20212;-84
2023/09/27 15:10:17;;;;;;;9.10;2.97;;;;;25.50;101013.00;;;;10731592;23;20379;-84
2023/09/27 15:15:19;;;;;;;5.38;2.83;;;;;25.80;100988.00;;;;10075226;29;20222;-87
2023/09/27 15:20:21;;;;;;;6.25;2.72;;;;;26.10;100981.00;;;;10112114;29;20204;-85
2023/09/27 15:25:23;;;;;;;6.95;2.92;;;;;26.10;100979.00;;;;10077574;29;20251;-85
2023/09/27 15:36:44;;;;;;;3.70;2.75;;;;;25.40;100980.00;;;;9886231;29;20326;-85
2023/09/27 15:41:47;;;;;;;6.10;2.72;;;;;25.20;100968.00;;;;9877108;29;20356;-84
2023/09/27 15:46:50;;;;;;;5.47;2.85;;;;;25.00;100978.00;;;;9873679;29;20890;-86
2023/09/27 15:51:53;;;;;;;5.07;2.90;;;;;24.70;100987.00;;;;9882806;29;20256;-86
2023/09/27 15:56:55;;;;;;;4.20;2.72;;;;;24.40;100982.00;;;;9892007;29;20221;-85
2023/09/27 16:01:57;;;;;;;3.45;2.67;;;;;24.20;100984.00;;;;9853341;29;20218;-84
2023/09/27 16:06:59;;;;;;;6.68;3.60;;;;;23.90;100985.00;;;;9911061;29;20241;-86
2023/09/27 16:12:01;;;;;;;7.03;3.20;;;;;23.60;100962.00;;;;9897990;29;20237;-84
2023/09/27 16:17:04;;;;;;;4.45;2.97;;;;;23.40;100954.00;;;;9887786;29;21881;-82
2023/09/27 16:22:06;;;;;;;9.30;3.65;;;;;23.10;100954.00;;;;9910317;29;20236;-83
2023/09/27 16:27:08;;;;;;;5.15;3.60;;;;;22.90;100960.00;;;;9940721;29;20332;-81
2023/09/27 16:32:10;;;;;;;4.65;3.22;;;;;22.80;100941.00;;;;9926609;29;20214;-83
2023/09/27 16:37:12;;;;;;;5.32;3.25;;;;;22.60;100930.00;;;;9877703;29;20222;-84
2023/09/27 16:42:14;;;;;;;4.47;2.95;;;;;22.40;100936.00;;;;9903294;29;20308;-82
2023/09/27 16:47:16;;;;;;;6.60;3.60;;;;;22.30;100932.00;;;;9899230;29;20321;-81
2023/09/27 16:52:18;;;;;;;5.28;2.92;;;;;22.20;100921.00;;;;9901622;29;21316;-82
2023/09/27 16:57:21;;;;;;;6.55;3.22;;;;;22.00;100910.00;;;;9904479;29;22347;-82
2023/09/27 17:02:23;;;;;;;5.75;3.03;;;;;21.90;100916.00;;;;9921313;29;20297;-82
2023/09/27 17:07:32;;;;;;;5.05;3.20;;;;;21.70;100921.00;;;;9915632;29;20244;-82
2023/09/27 17:12:35;;;;;;;6.93;3.30;;;;;21.60;100911.00;;;;9917618;29;21314;-81
2023/09/27 17:17:37;;;;;;;6.95;3.30;;;;;21.40;100904.00;;;;9918651;29;20210;-81
2023/09/27 17:22:38;;;;;;;6.68;3.03;;;;;21.20;100902.00;;;;9907404;29;21862;-82
2023/09/27 17:27:40;;;;;;;7.10;3.03;;;;;21.10;100892.00;;;;9937087;29;20233;-82
2023/09/27 17:32:42;;;;;;;7.13;3.20;;;;;21.00;100898.00;;;;9935251;29;20367;-81
2023/09/27 17:37:45;;;;;;;7.28;3.30;;;;;20.90;100895.00;;;;9933920;29;20221;-81
2023/09/27 17:42:49;;;;;;;7.25;3.53;;;;;20.90;100893.00;;;;9956408;29;20232;-81
2023/09/27 17:47:51;;;;;;;3.63;2.90;;;;;20.80;100898.00;;;;9948940;29;20335;-82
2023/09/27 17:52:53;;;;;;;6.20;3.20;;;;;20.70;100880.00;;;;9949870;29;20225;-81
2023/09/27 17:57:55;;;;;;;4.95;2.53;;;;;20.70;100880.00;;;;9937701;29;20221;-81
2023/09/27 18:02:57;;;;;;;5.22;2.65;;;;;20.60;100875.00;;;;9942037;29;20224;-82
2023/09/27 18:07:59;;;;;;;6.30;2.72;;;;;20.50;100874.00;;;;9964905;29;20228;-83
2023/09/27 18:13:03;;;;;;;7.20;3.47;;;;;20.50;100865.00;;;;9928492;29;20248;-83
2023/09/27 18:18:05;;;;;;;3.53;2.70;;;;;20.50;100868.00;;;;9944124;29;21199;-84
2023/09/27 18:23:07;;;;;;;5.15;2.80;;;;;20.40;100873.00;;;;9971786;29;20257;-84
2023/09/27 18:28:10;;;;;;;4.50;2.88;;;;;20.50;100871.00;;;;9966143;29;20244;-83
2023/09/27 18:33:12;;;;;;;4.18;2.95;;;;;20.40;100853.00;;;;9927618;29;20272;-83
2023/09/27 18:38:14;;;;;;;3.85;2.85;;;;;20.30;100848.00;;;;9952207;29;20225;-83
2023/09/27 18:43:18;;;;;;;6.40;2.90;;;;;20.10;100856.00;;;;9960427;29;20217;-82
2023/09/27 18:48:20;;;;;;;3.80;2.60;;;;;20.00;100872.00;;;;9973472;29;20359;-84
2023/09/27 18:53:22;;;;;;;6.60;2.80;;;;;19.90;100876.00;;;;9955227;29;20253;-85
2023/09/27 18:58:24;;;;;;;3.25;2.90;;;;;19.80;100864.00;;;;9964239;29;20220;-84
2023/09/27 19:03:26;;;;;;;5.13;3.13;;;;;19.60;100852.00;;;;9961473;29;20806;-83
2023/09/27 19:08:28;;;;;;;5.72;3.10;;;;;19.50;100852.00;;;;9954849;29;21151;-83
2023/09/27 19:13:30;;;;;;;5.57;3.20;;;;;19.40;100829.00;;;;9934563;29;20224;-82
2023/09/27 19:18:32;;;;;;;4.38;3.10;;;;;19.30;100859.00;;;;9949810;29;21553;-81
2023/09/27 19:23:38;;;;;;;4.18;3.15;;;;;19.30;100852.00;;;;9970976;29;21475;-82
2023/09/27 19:28:40;;;;;;;4.57;3.22;;;;;19.40;100831.00;;;;9958883;29;20239;-79
2023/09/27 19:33:42;;;;;;;5.25;3.08;;;;;19.40;100823.00;;;;9990306;29;20299;-82
2023/09/27 19:38:44;;;;;;;5.68;3.33;;;;;19.30;100827.00;;;;9992901;29;20310;-82
2023/09/27 19:43:46;;;;;;;5.10;3.05;;;;;19.40;100834.00;;;;9953294;29;20232;-81
2023/09/27 19:48:49;;;;;;;5.85;3.30;;;;;19.60;100813.00;;;;9951472;29;20237;-79
2023/09/27 19:53:51;;;;;;;4.78;2.92;;;;;19.80;100810.00;;;;9953595;29;20221;-81
2023/09/27 19:58:54;;;;;;;5.38;2.95;;;;;19.90;100804.00;;;;9951797;29;20229;-80
2023/09/27 20:03:56;;;;;;;5.55;3.05;;;;;19.90;100798.00;;;;9937681;29;21959;-80
2023/09/27 20:08:58;;;;;;;4.90;2.97;;;;;19.90;100797.00;;;;9938814;29;20232;-80
2023/09/27 20:14:00;;;;;;;7.60;3.25;;;;;20.00;100795.00;;;;9959403;29;20224;-83
2023/09/27 20:19:05;;;;;;;3.88;3.08;;;;;20.00;100795.00;;;;9931222;29;20325;-81
2023/09/27 20:24:08;;;;;;;4.10;3.03;;;;;20.00;100793.00;;;;9936792;29;20309;-81
2023/09/27 20:29:10;;;;;;;3.40;2.60;;;;;20.00;100776.00;;;;9954507;29;20336;-80
2023/09/27 20:34:12;;;;;;;5.00;2.60;;;;;20.10;100757.00;;;;9966487;29;20775;-81
2023/09/27 20:39:15;;;;;;;4.97;3.00;;;;;20.10;100740.00;;;;9954747;29;20315;-81
2023/09/27 20:44:17;;;;;;;6.30;3.40;;;;;20.10;100734.00;;;;9951006;29;20220;-83
2023/09/27 20:49:19;;;;;;;6.72;3.22;;;;;20.10;100716.00;;;;9948113;29;21127;-81
2023/09/27 20:54:22;;;;;;;7.20;2.95;;;;;20.10;100717.00;;;;9938854;29;20224;-81
2023/09/27 20:59:25;;;;;;;4.07;3.10;;;;;20.20;100711.00;;;;9954799;29;20217;-81
2023/09/27 21:04:27;;;;;;;5.00;2.90;;;;;20.20;100722.00;;;;9945710;29;20346;-80
2023/09/27 21:09:30;;;;;;;5.18;2.63;;;;;20.20;100686.00;;;;9935037;29;20240;-81
2023/09/27 21:14:36;;;;;;;5.88;3.10;;;;;20.10;100681.00;;;;9954156;29;22075;-81
2023/09/27 21:19:38;;;;;;;4.32;2.83;;;;;20.10;100690.00;;;;9944237;29;20313;-83
2023/09/27 21:24:40;;;;;;;3.72;2.65;;;;;20.10;100723.00;;;;9950314;29;20551;-81
2023/09/27 21:29:42;;;;;;;5.43;3.00;;;;;19.90;100752.00;;;;9946060;29;20233;-81
2023/09/27 21:34:44;;;;;;;3.35;2.60;;;;;19.80;100765.00;;;;9933570;29;20324;-81
2023/09/27 21:39:50;;;;;;;5.55;3.22;;;;;19.60;100770.00;;;;9947841;29;20231;-81
2023/09/27 21:44:52;;;;;;;4.35;2.92;;;;;19.70;100781.00;;;;9950025;29;20224;-80
2023/09/27 21:49:54;;;;;;;3.25;2.63;;;;;19.70;100790.00;;;;9967825;29;20316;-81
2023/09/27 21:54:57;;;;;;;6.97;2.58;;;;;19.70;100790.00;;;;9941973;29;20811;-81
2023/09/27 21:59:59;;;;;;;4.13;2.65;;;;;19.60;100800.00;;;;9959992;29;20235;-81
2023/09/27 22:05:01;;;;;;;5.07;2.80;;;;;19.70;100799.00;;;;9958636;29;20753;-82
2023/09/27 22:10:03;;;;;;;5.85;2.90;;;;;19.70;100785.00;;;;9959770;29;20262;-80
2023/09/27 22:15:09;;;;;;;3.67;2.55;;;;;19.80;100776.00;;;;9946298;29;20236;-80
2023/09/27 22:20:12;;;;;;;3.47;2.63;;;;;19.80;100792.00;;;;9977248;29;20229;-80
2023/09/27 22:25:14;;;;;;;3.70;2.30;;;;;19.90;100795.00;;;;9946830;29;20225;-80
2023/09/27 22:30:16;;;;;;;2.67;2.22;;;;;19.90;100799.00;;;;9979446;29;20383;-80
2023/09/27 22:35:25;;;;;;;4.68;2.28;;;;;19.90;100799.00;;;;9965389;29;20220;-82
2023/09/27 22:40:27;;;;;;;4.57;2.00;;;;;19.80;100786.00;;;;9975051;29;20228;-80
2023/09/27 22:45:35;;;;;;;5.78;2.80;;;;;19.80;100790.00;;;;9996516;29;20243;-78
2023/09/27 22:50:46;;;;;;;4.20;2.65;;;;;19.70;100796.00;;;;9957250;29;20240;-80
2023/09/27 22:55:58;;;;;;;6.05;2.45;;;;;19.70;100787.00;;;;9957024;29;20217;-79
2023/09/27 23:01:27;;;;;;;4.57;2.45;;;;;19.60;100792.00;;;;9968810;29;20217;-82
2023/09/27 23:06:30;;;;;;;3.70;2.33;;;;;19.60;100797.00;;;;9973620;29;20255;-79
2023/09/27 23:11:40;;;;;;;3.28;2.42;;;;;19.60;100803.00;;;;9934754;29;20300;-82
2023/09/27 23:16:45;;;;;;;5.18;2.67;;;;;19.50;100805.00;;;;9943301;29;20252;-80
2023/09/27 23:21:48;;;;;;;6.93;2.35;;;;;19.50;100801.00;;;;9940675;29;20240;-82
2023/09/27 23:27:01;;;;;;;8.05;2.45;;;;;19.50;100801.00;;;;9942716;29;21035;-82
2023/09/27 23:32:17;;;;;;;4.72;2.50;;;;;19.50;100809.00;;;;9949605;29;20248;-80
2023/09/27 23:37:30;;;;;;;5.93;2.60;;;;;19.50;100813.00;;;;9942450;29;20303;-80
2023/09/27 23:42:37;;;;;;;4.97;2.67;;;;;19.40;100815.00;;;;9948282;29;20221;-82
2023/09/27 23:47:44;;;;;;;5.97;2.80;;;;;19.30;100829.00;;;;9941844;29;20331;-80
2023/09/27 23:52:47;;;;;;;5.70;2.70;;;;;19.20;100835.00;;;;9941397;29;20225;-79
2023/09/27 23:57:49;;;;;;;4.13;2.72;;;;;19.20;100833.00;;;;9956646;29;20220;-80
